createdAt,value
2023-01-09T00:01:32.699Z,5.50
2023-01-09T00:03:59.961Z,5.50
2023-01-09T00:06:26.965Z,5.40
2023-01-09T00:08:53.934Z,5.40
2023-01-09T00:11:20.967Z,5.50
2023-01-09T00:13:48.034Z,5.40
2023-01-09T00:16:15.118Z,5.50
2023-01-09T00:18:42.146Z,5.50
2023-01-09T00:21:09.622Z,5.40
2023-01-09T00:23:36.681Z,5.40
2023-01-09T00:26:14.149Z,5.50
2023-01-09T00:28:41.220Z,5.40
2023-01-09T00:31:08.463Z,5.40
2023-01-09T00:33:36.730Z,5.40
2023-01-09T00:36:03.850Z,5.40
2023-01-09T00:38:31.008Z,5.40
2023-01-09T00:40:58.012Z,5.40
2023-01-09T00:43:26.904Z,5.40
2023-01-09T00:45:53.923Z,5.40
2023-01-09T00:48:26.896Z,5.40
2023-01-09T00:50:54.420Z,5.40
2023-01-09T00:53:23.187Z,5.30
2023-01-09T00:55:51.418Z,5.30
2023-01-09T00:58:18.557Z,5.40
2023-01-09T01:00:45.615Z,5.30
2023-01-09T01:03:12.605Z,5.30
2023-01-09T01:05:58.380Z,5.30
2023-01-09T01:08:25.389Z,5.30
2023-01-09T01:10:52.416Z,5.30
2023-01-09T01:13:19.575Z,5.30
2023-01-09T01:15:46.853Z,5.20
2023-01-09T01:18:14.050Z,5.30
2023-01-09T01:20:41.591Z,5.20
2023-01-09T01:23:08.570Z,5.30
2023-01-09T01:25:36.704Z,5.30
2023-01-09T01:28:03.750Z,5.30
2023-01-09T01:30:31.390Z,5.30
2023-01-09T01:32:58.414Z,5.20
2023-01-09T01:35:26.921Z,5.20
2023-01-09T01:37:53.953Z,5.20
2023-01-09T01:40:20.966Z,5.20
2023-01-09T01:42:48.679Z,5.20
2023-01-09T01:45:16.590Z,5.20
2023-01-09T01:47:48.915Z,5.30
2023-01-09T01:50:27.393Z,5.30
2023-01-09T01:52:56.689Z,5.30
2023-01-09T01:55:23.651Z,5.30
2023-01-09T01:57:50.882Z,5.30
2023-01-09T02:00:18.391Z,5.30
2023-01-09T02:02:46.057Z,5.30
2023-01-09T02:05:13.123Z,5.30
2023-01-09T02:07:40.099Z,5.30
2023-01-09T02:10:07.575Z,5.30
2023-01-09T02:12:34.529Z,5.30
2023-01-09T02:15:06.992Z,5.30
2023-01-09T02:17:40.274Z,5.30
2023-01-09T02:20:26.230Z,5.30
2023-01-09T02:22:59.262Z,5.30
2023-01-09T02:25:32.302Z,5.30
2023-01-09T02:28:11.534Z,5.30
2023-01-09T02:30:44.758Z,5.30
2023-01-09T02:33:11.776Z,5.30
2023-01-09T02:35:46.059Z,5.30
2023-01-09T02:38:22.831Z,5.40
2023-01-09T02:41:00.561Z,5.30
2023-01-09T02:43:27.553Z,5.30
2023-01-09T02:45:54.548Z,5.30
2023-01-09T02:48:21.585Z,5.30
2023-01-09T02:51:15.137Z,5.30
2023-01-09T02:53:55.217Z,5.40
2023-01-09T02:56:31.565Z,5.30
2023-01-09T02:59:04.418Z,5.40
2023-01-09T03:01:40.853Z,5.40
2023-01-09T03:04:09.339Z,5.30
2023-01-09T03:06:47.702Z,5.30
2023-01-09T03:09:20.412Z,5.40
2023-01-09T03:11:48.097Z,5.40
2023-01-09T03:14:16.160Z,5.40
2023-01-09T03:16:44.751Z,5.40
2023-01-09T03:19:12.614Z,5.40
2023-01-09T03:21:39.723Z,5.40
2023-01-09T03:24:06.781Z,5.40
2023-01-09T03:26:33.735Z,5.40
2023-01-09T03:29:00.731Z,5.50
2023-01-09T03:31:27.746Z,5.40
2023-01-09T03:33:54.763Z,5.50
2023-01-09T03:36:21.816Z,5.50
2023-01-09T03:38:49.006Z,5.50
2023-01-09T03:41:15.999Z,5.50
2023-01-09T03:43:43.060Z,5.40
2023-01-09T03:46:10.328Z,5.50
2023-01-09T03:48:37.378Z,5.50
2023-01-09T03:51:04.574Z,5.50
2023-01-09T03:53:31.562Z,5.50
2023-01-09T03:55:58.926Z,5.50
2023-01-09T03:58:26.253Z,5.50
2023-01-09T04:00:57.303Z,5.50
2023-01-09T04:03:24.443Z,5.50
2023-01-09T04:05:51.419Z,5.50
2023-01-09T04:08:18.615Z,5.50
2023-01-09T04:10:45.990Z,5.60
2023-01-09T04:13:13.092Z,5.60
2023-01-09T04:15:40.149Z,5.60
2023-01-09T04:18:07.161Z,5.60
2023-01-09T04:20:34.450Z,5.60
2023-01-09T04:23:01.514Z,5.70
2023-01-09T04:25:28.728Z,5.70
2023-01-09T04:27:55.753Z,5.70
2023-01-09T04:30:22.788Z,5.80
2023-01-09T04:32:49.783Z,5.80
2023-01-09T04:35:16.846Z,5.80
2023-01-09T04:37:43.819Z,5.80
2023-01-09T04:40:11.980Z,5.90
2023-01-09T04:42:39.170Z,5.90
2023-01-09T04:45:06.541Z,5.90
2023-01-09T04:47:33.631Z,5.90
2023-01-09T04:50:00.704Z,6.00
2023-01-09T04:52:28.064Z,6.00
2023-01-09T04:54:55.086Z,6.10
2023-01-09T04:57:22.047Z,6.20
2023-01-09T04:59:49.055Z,6.20
2023-01-09T05:02:16.130Z,6.20
2023-01-09T05:04:43.142Z,6.30
2023-01-09T05:07:10.094Z,6.40
2023-01-09T05:09:37.109Z,6.40
2023-01-09T05:12:04.217Z,6.40
2023-01-09T05:14:31.233Z,6.50
2023-01-09T05:16:58.394Z,6.60
2023-01-09T05:19:25.551Z,6.60
2023-01-09T05:21:52.522Z,6.70
2023-01-09T05:24:19.579Z,6.70
2023-01-09T05:26:46.577Z,6.80
2023-01-09T05:29:13.569Z,6.80
2023-01-09T05:31:40.586Z,6.80
2023-01-09T05:34:07.606Z,6.80
2023-01-09T05:36:34.773Z,6.80
2023-01-09T05:39:02.738Z,6.80
2023-01-09T05:41:29.754Z,6.80
2023-01-09T05:43:56.727Z,6.80
2023-01-09T05:46:23.766Z,6.90
2023-01-09T05:48:50.745Z,6.90
2023-01-09T05:51:17.936Z,6.90
2023-01-09T05:53:44.925Z,6.80
2023-01-09T05:56:12.131Z,6.80
2023-01-09T05:58:39.177Z,6.80
2023-01-09T06:01:06.349Z,6.80
2023-01-09T06:03:33.620Z,6.80
2023-01-09T06:06:00.580Z,6.80
2023-01-09T06:08:27.566Z,6.80
2023-01-09T06:10:54.552Z,6.80
2023-01-09T06:13:21.579Z,6.80
2023-01-09T06:15:48.812Z,6.70
2023-01-09T06:18:16.047Z,6.70
2023-01-09T06:20:44.297Z,6.70
2023-01-09T06:23:13.387Z,6.70
2023-01-09T06:25:40.780Z,6.70
2023-01-09T06:28:08.007Z,6.70
2023-01-09T06:30:35.105Z,6.70
2023-01-09T06:33:02.168Z,6.70
2023-01-09T06:35:29.176Z,6.60
2023-01-09T06:37:56.955Z,6.70
2023-01-09T06:40:23.934Z,6.60
2023-01-09T06:42:50.941Z,6.60
2023-01-09T06:45:17.920Z,6.60
2023-01-09T06:47:44.931Z,6.60
2023-01-09T06:50:11.989Z,6.60
2023-01-09T06:52:39.086Z,6.60
2023-01-09T06:55:06.560Z,6.50
2023-01-09T06:57:33.628Z,6.50
2023-01-09T07:00:00.699Z,6.40
2023-01-09T07:02:27.663Z,6.40
2023-01-09T07:04:54.691Z,6.50
2023-01-09T07:07:22.357Z,6.40
2023-01-09T07:09:49.408Z,6.40
2023-01-09T07:12:16.466Z,6.40
2023-01-09T07:14:43.458Z,6.40
2023-01-09T07:17:13.604Z,6.40
2023-01-09T07:19:40.614Z,6.40
2023-01-09T07:22:07.771Z,6.30
2023-01-09T07:24:34.796Z,6.30
2023-01-09T07:27:02.183Z,6.30
2023-01-09T07:29:29.293Z,6.30
2023-01-09T07:31:56.707Z,6.30
2023-01-09T07:34:23.667Z,6.30
2023-01-09T07:36:51.157Z,6.30
2023-01-09T07:39:18.164Z,6.30
2023-01-09T07:41:45.268Z,6.20
2023-01-09T07:44:12.422Z,6.20
2023-01-09T07:46:39.574Z,6.20
2023-01-09T07:49:06.637Z,6.10
2023-01-09T07:51:33.640Z,6.10
2023-01-09T07:54:00.645Z,6.00
2023-01-09T07:56:27.825Z,6.00
2023-01-09T07:58:54.803Z,5.90
2023-01-09T08:01:21.882Z,5.90
2023-01-09T08:03:48.932Z,5.80
2023-01-09T08:06:15.920Z,5.80
2023-01-09T08:08:43.133Z,5.70
2023-01-09T08:11:10.259Z,5.70
2023-01-09T08:13:37.276Z,5.70
2023-01-09T08:16:04.478Z,5.60
2023-01-09T08:18:31.486Z,5.60
2023-01-09T08:20:58.466Z,5.60
2023-01-09T08:23:25.506Z,5.60
2023-01-09T08:25:52.595Z,5.60
2023-01-09T08:28:19.595Z,5.60
2023-01-09T08:30:46.904Z,5.60
2023-01-09T08:33:13.955Z,5.60
2023-01-09T08:35:41.062Z,5.60
2023-01-09T08:38:08.116Z,5.70
2023-01-09T08:40:35.166Z,5.60
2023-01-09T08:43:21.079Z,5.70
2023-01-09T08:46:20.556Z,5.70
2023-01-09T08:48:50.470Z,5.70
2023-01-09T08:51:17.492Z,5.70
2023-01-09T08:53:44.612Z,5.70
2023-01-09T08:56:11.825Z,5.80
2023-01-09T08:58:38.900Z,5.80
2023-01-09T09:01:08.915Z,5.80
2023-01-09T09:03:35.936Z,5.80
2023-01-09T09:06:03.166Z,5.80
2023-01-09T09:08:30.237Z,5.80
2023-01-09T09:10:57.363Z,5.80
2023-01-09T09:13:24.579Z,5.80
2023-01-09T09:15:51.596Z,5.80
2023-01-09T09:18:18.639Z,5.80
2023-01-09T09:20:45.686Z,5.80
2023-01-09T09:23:12.745Z,5.80
2023-01-09T09:25:39.989Z,5.90
2023-01-09T09:28:07.070Z,5.90
2023-01-09T09:30:34.099Z,5.90
2023-01-09T09:33:02.672Z,5.90
2023-01-09T09:35:30.990Z,5.80
2023-01-09T09:37:58.626Z,5.80
2023-01-09T09:40:35.725Z,5.80
2023-01-09T09:43:24.493Z,5.80
2023-01-09T09:46:13.546Z,5.80
2023-01-09T09:48:56.112Z,5.80
2023-01-09T09:51:32.379Z,5.80
2023-01-09T09:54:02.576Z,5.90
2023-01-09T09:56:30.570Z,5.90
2023-01-09T09:58:59.924Z,5.90
2023-01-09T10:01:53.342Z,5.90
2023-01-09T10:04:20.568Z,5.90
2023-01-09T10:06:48.527Z,5.90
2023-01-09T10:09:28.916Z,5.90
2023-01-09T10:12:16.410Z,5.90
2023-01-09T10:14:43.751Z,5.90
2023-01-09T10:17:26.109Z,5.90
2023-01-09T10:19:57.716Z,5.90
2023-01-09T10:22:43.595Z,5.90
2023-01-09T10:25:29.420Z,5.90
2023-01-09T10:27:56.580Z,6.00
2023-01-09T10:30:26.596Z,6.00
2023-01-09T10:33:01.476Z,6.00
2023-01-09T10:35:47.627Z,6.00
2023-01-09T10:38:17.638Z,6.10
2023-01-09T10:40:46.775Z,6.10
2023-01-09T10:43:19.890Z,6.10
2023-01-09T10:45:50.347Z,6.10
2023-01-09T10:48:28.943Z,6.20
2023-01-09T10:50:56.142Z,6.20
2023-01-09T10:53:23.197Z,6.20
2023-01-09T10:55:52.053Z,6.20
2023-01-09T10:58:19.894Z,6.30
2023-01-09T11:00:47.138Z,6.30
2023-01-09T11:03:14.607Z,6.30
2023-01-09T11:05:41.714Z,6.30
2023-01-09T11:08:08.678Z,6.30
2023-01-09T11:10:48.920Z,6.30
2023-01-09T11:13:20.246Z,6.30
2023-01-09T11:15:58.627Z,6.30
2023-01-09T11:18:25.702Z,6.30
2023-01-09T11:20:52.843Z,6.30
2023-01-09T11:23:27.679Z,6.30
2023-01-09T11:25:55.660Z,6.30
2023-01-09T11:28:22.683Z,6.30
2023-01-09T11:30:57.046Z,6.40
2023-01-09T11:33:24.890Z,6.30
2023-01-09T11:35:55.398Z,6.40
2023-01-09T11:38:22.376Z,6.40
2023-01-09T11:40:50.607Z,6.40
2023-01-09T11:43:22.239Z,6.40
2023-01-09T11:46:00.662Z,6.40
2023-01-09T11:48:32.638Z,6.50
2023-01-09T11:51:00.165Z,6.50
2023-01-09T11:53:27.315Z,6.50
2023-01-09T11:55:56.114Z,6.50
2023-01-09T11:58:23.091Z,6.50
2023-01-09T12:00:50.713Z,6.50
2023-01-09T12:03:17.876Z,6.60
2023-01-09T12:06:03.703Z,6.60
2023-01-09T12:08:39.989Z,6.60
2023-01-09T12:11:12.517Z,6.60
2023-01-09T12:13:58.552Z,6.70
2023-01-09T12:16:25.580Z,6.70
2023-01-09T12:18:52.610Z,6.70
2023-01-09T12:21:26.048Z,6.70
2023-01-09T12:23:56.094Z,6.70
2023-01-09T12:26:24.676Z,6.70
2023-01-09T12:29:10.460Z,6.80
2023-01-09T12:31:49.847Z,6.70
2023-01-09T12:34:20.047Z,6.80
2023-01-09T12:37:06.201Z,6.80
2023-01-09T12:39:45.031Z,6.70
2023-01-09T12:42:18.348Z,6.80
2023-01-09T12:44:48.494Z,6.80
2023-01-09T12:47:35.955Z,6.80
2023-01-09T12:50:14.850Z,6.80
2023-01-09T12:53:11.303Z,6.80
2023-01-09T12:55:42.450Z,6.90
2023-01-09T12:58:14.931Z,6.80
2023-01-09T13:00:42.232Z,6.80
2023-01-09T13:03:13.278Z,6.90
2023-01-09T13:05:41.815Z,6.90
2023-01-09T13:08:21.031Z,6.90
2023-01-09T13:10:49.257Z,6.90
2023-01-09T13:13:20.880Z,6.90
2023-01-09T13:15:48.739Z,6.90
2023-01-09T13:18:18.960Z,6.90
2023-01-09T13:20:47.172Z,6.90
2023-01-09T13:23:16.185Z,6.90
2023-01-09T13:25:47.295Z,6.90
2023-01-09T13:28:24.451Z,6.90
2023-01-09T13:30:58.579Z,6.90
2023-01-09T13:33:38.967Z,6.90
2023-01-09T13:36:06.397Z,6.80
2023-01-09T13:38:33.901Z,6.80
2023-01-09T13:41:30.056Z,6.80
2023-01-09T13:43:58.268Z,6.80
2023-01-09T13:46:36.628Z,6.80
2023-01-09T13:49:03.744Z,6.80
2023-01-09T13:51:55.327Z,6.70
2023-01-09T13:54:41.127Z,6.70
2023-01-09T13:57:20.275Z,6.70
2023-01-09T13:59:48.349Z,6.70
2023-01-09T14:02:34.016Z,6.70
2023-01-09T14:05:01.646Z,6.70
2023-01-09T14:07:35.428Z,6.70
2023-01-09T14:10:03.277Z,6.70
2023-01-09T14:12:30.734Z,6.70
2023-01-09T14:14:59.213Z,6.70
2023-01-09T14:17:26.210Z,6.70
2023-01-09T14:19:54.058Z,6.70
2023-01-09T14:22:25.163Z,6.70
2023-01-09T14:24:53.236Z,6.70
2023-01-09T14:27:39.103Z,6.70
2023-01-09T14:30:35.751Z,6.70
2023-01-09T14:33:02.743Z,6.60
2023-01-09T14:35:59.125Z,6.70
2023-01-09T14:38:27.911Z,6.60
2023-01-09T14:41:03.489Z,6.60
2023-01-09T14:43:40.179Z,6.60
2023-01-09T14:46:11.076Z,6.60
2023-01-09T14:48:40.298Z,6.60
2023-01-09T14:51:08.911Z,6.60
2023-01-09T14:53:36.989Z,6.60
2023-01-09T14:56:06.568Z,6.60
2023-01-09T14:58:36.701Z,6.60
2023-01-09T15:01:16.625Z,6.60
2023-01-09T15:03:43.703Z,6.60
2023-01-09T15:06:13.641Z,6.60
2023-01-09T15:08:41.357Z,6.60
2023-01-09T15:11:09.780Z,6.60
2023-01-09T15:13:37.438Z,6.60
2023-01-09T15:16:05.223Z,6.50
2023-01-09T15:18:32.672Z,6.50
2023-01-09T15:21:02.827Z,6.50
2023-01-09T15:23:30.565Z,6.50
2023-01-09T15:25:58.036Z,6.40
2023-01-09T15:28:32.285Z,6.40
2023-01-09T15:31:03.894Z,6.40
2023-01-09T15:33:31.376Z,6.30
2023-01-09T15:36:02.721Z,6.30
2023-01-09T15:38:31.141Z,6.30
2023-01-09T15:40:59.052Z,6.30
2023-01-09T15:43:26.991Z,6.30
2023-01-09T15:45:54.120Z,6.30
2023-01-09T15:48:32.393Z,6.30
2023-01-09T15:51:03.984Z,6.30
2023-01-09T15:53:31.042Z,6.40
2023-01-09T15:56:16.090Z,6.40
2023-01-09T15:58:49.700Z,6.40
2023-01-09T16:01:20.773Z,6.40
2023-01-09T16:03:47.826Z,6.40
2023-01-09T16:06:17.642Z,6.30
2023-01-09T16:08:49.818Z,6.40
2023-01-09T16:11:20.797Z,6.30
2023-01-09T16:13:47.837Z,6.30
2023-01-09T16:16:18.864Z,6.30
2023-01-09T16:18:49.627Z,6.30
2023-01-09T16:21:16.592Z,6.30
2023-01-09T16:23:50.133Z,6.30
2023-01-09T16:26:20.137Z,6.30
2023-01-09T16:28:47.115Z,6.30
2023-01-09T16:31:14.059Z,6.30
2023-01-09T16:33:44.164Z,6.20
2023-01-09T16:36:13.427Z,6.20
2023-01-09T16:38:43.493Z,6.20
2023-01-09T16:41:52.546Z,6.10
2023-01-09T16:44:19.623Z,6.10
2023-01-09T16:46:46.680Z,6.10
2023-01-09T16:49:18.066Z,6.00
2023-01-09T16:51:45.420Z,6.00
2023-01-09T16:54:12.533Z,6.00
2023-01-09T16:56:39.680Z,6.00
2023-01-09T16:59:10.705Z,5.90
2023-01-09T17:01:37.706Z,5.90
2023-01-09T17:04:11.982Z,5.90
2023-01-09T17:06:39.100Z,5.90
2023-01-09T17:09:06.114Z,5.90
2023-01-09T17:11:33.138Z,5.90
2023-01-09T17:14:00.588Z,5.90
2023-01-09T17:16:27.992Z,5.80
2023-01-09T17:18:55.052Z,5.80
2023-01-09T17:21:22.768Z,5.80
2023-01-09T17:24:25.256Z,5.80
2023-01-09T17:27:10.652Z,5.80
2023-01-09T17:29:37.650Z,5.80
2023-01-09T17:32:04.796Z,5.80
2023-01-09T17:34:31.927Z,5.80
2023-01-09T17:36:58.966Z,5.80
2023-01-09T17:39:26.042Z,5.80
2023-01-09T17:41:53.544Z,5.70
2023-01-09T17:44:20.597Z,5.70
2023-01-09T17:46:47.641Z,5.70
2023-01-09T17:49:18.856Z,5.70
2023-01-09T17:51:45.830Z,5.70
2023-01-09T17:54:12.879Z,5.60
2023-01-09T17:56:40.676Z,5.60
2023-01-09T17:59:11.084Z,5.60
2023-01-09T18:01:38.230Z,5.60
2023-01-09T18:04:05.260Z,5.50
2023-01-09T18:06:32.231Z,5.50
2023-01-09T18:08:59.221Z,5.50
2023-01-09T18:11:26.285Z,5.40
2023-01-09T18:13:56.389Z,5.40
2023-01-09T18:16:24.631Z,5.40
2023-01-09T18:18:52.001Z,5.40
2023-01-09T18:21:19.831Z,5.40
2023-01-09T18:23:47.745Z,5.30
2023-01-09T18:26:21.780Z,5.30
2023-01-09T18:28:49.153Z,5.30
2023-01-09T18:31:17.346Z,5.30
2023-01-09T18:33:44.966Z,5.30
2023-01-09T18:36:12.086Z,5.30
2023-01-09T18:38:39.258Z,5.20
2023-01-09T18:41:06.219Z,5.20
2023-01-09T18:43:33.276Z,5.20
2023-01-09T18:46:04.866Z,5.10
2023-01-09T18:48:31.968Z,5.10
2023-01-09T18:51:02.937Z,5.10
2023-01-09T18:53:30.135Z,5.10
2023-01-09T18:55:57.304Z,5.10
2023-01-09T18:58:24.460Z,5.00
2023-01-09T19:00:53.950Z,5.00
2023-01-09T19:03:20.914Z,5.00
2023-01-09T19:05:47.940Z,5.00
2023-01-09T19:08:14.915Z,5.00
2023-01-09T19:10:41.948Z,4.90
2023-01-09T19:13:08.975Z,4.90
2023-01-09T19:15:36.161Z,4.90
2023-01-09T19:18:06.666Z,4.80
2023-01-09T19:20:33.633Z,4.90
2023-01-09T19:23:00.651Z,4.90
2023-01-09T19:25:27.671Z,4.90
2023-01-09T19:27:55.995Z,4.90
2023-01-09T19:30:23.047Z,4.90
2023-01-09T19:32:50.247Z,4.90
2023-01-09T19:35:17.688Z,4.90
2023-01-09T19:37:44.638Z,4.90
2023-01-09T19:40:11.862Z,4.90
2023-01-09T19:42:38.853Z,4.90
2023-01-09T19:45:06.217Z,4.80
2023-01-09T19:47:35.589Z,4.80
2023-01-09T19:50:04.982Z,4.90
2023-01-09T19:52:32.317Z,4.80
2023-01-09T19:54:59.285Z,4.80
2023-01-09T19:57:26.501Z,4.80
2023-01-09T19:59:53.559Z,4.80
2023-01-09T20:04:48.453Z,4.70
2023-01-09T20:07:15.425Z,4.70
2023-01-09T20:09:42.431Z,4.60
2023-01-09T20:12:09.469Z,4.60
2023-01-09T20:14:37.671Z,4.60
2023-01-09T20:17:04.910Z,4.60
2023-01-09T20:19:32.815Z,4.50
2023-01-09T20:22:00.175Z,4.50
2023-01-09T20:24:27.219Z,4.50
2023-01-09T20:26:54.270Z,4.50
2023-01-09T20:29:21.562Z,4.40
2023-01-09T20:31:48.674Z,4.40
2023-01-09T20:34:15.752Z,4.50
2023-01-09T20:36:43.108Z,4.40
2023-01-09T20:39:11.471Z,4.40
2023-01-09T20:41:38.509Z,4.40
2023-01-09T20:44:06.992Z,4.50
2023-01-09T20:46:35.268Z,4.40
2023-01-09T20:49:03.437Z,4.50
2023-01-09T20:51:31.099Z,4.50
2023-01-09T20:53:58.474Z,4.50
2023-01-09T20:56:25.936Z,4.50
2023-01-09T20:58:52.954Z,4.50
2023-01-09T21:01:20.102Z,4.50
2023-01-09T21:03:47.137Z,4.40
2023-01-09T21:06:14.985Z,4.40
2023-01-09T21:08:42.849Z,4.40
2023-01-09T21:11:10.190Z,4.40
2023-01-09T21:13:37.262Z,4.40
2023-01-09T21:16:05.188Z,4.40
2023-01-09T21:18:32.348Z,4.30
2023-01-09T21:21:04.049Z,4.30
2023-01-09T21:23:31.211Z,4.30
2023-01-09T21:25:59.527Z,4.30
2023-01-09T21:28:27.052Z,4.30
2023-01-09T21:30:54.140Z,4.30
2023-01-09T21:33:24.055Z,4.30
2023-01-09T21:35:51.929Z,4.30
2023-01-09T21:38:18.920Z,4.30
2023-01-09T21:40:47.989Z,4.30
2023-01-09T21:43:37.741Z,4.30
2023-01-09T21:46:23.575Z,4.20
2023-01-09T21:48:50.547Z,4.20
2023-01-09T21:51:17.623Z,4.20
2023-01-09T21:53:44.595Z,4.20
2023-01-09T21:56:11.567Z,4.20
2023-01-09T21:58:38.543Z,4.20
2023-01-09T22:01:05.648Z,4.20
2023-01-09T22:03:32.745Z,4.20
2023-01-09T22:06:02.811Z,4.20
2023-01-09T22:08:29.783Z,4.20
2023-01-09T22:10:59.980Z,4.20
2023-01-09T22:13:27.556Z,4.20
2023-01-09T22:15:55.258Z,4.10
2023-01-09T22:18:22.362Z,4.10
2023-01-09T22:20:49.333Z,4.10
2023-01-09T22:23:16.354Z,4.10
2023-01-09T22:25:43.345Z,4.10
2023-01-09T22:28:10.507Z,4.10
2023-01-09T22:30:41.280Z,4.10
2023-01-09T22:33:10.569Z,4.10
2023-01-09T22:35:38.289Z,4.20
2023-01-09T22:38:05.500Z,4.20
2023-01-09T22:40:32.467Z,4.10
2023-01-09T22:42:59.558Z,4.20
2023-01-09T22:45:26.517Z,4.10
2023-01-09T22:47:53.506Z,4.10
2023-01-09T22:50:20.492Z,4.10
2023-01-09T22:52:48.459Z,4.10
2023-01-09T22:55:15.612Z,4.10
2023-01-09T22:57:42.647Z,4.10
2023-01-09T23:00:09.914Z,4.10
2023-01-09T23:02:37.101Z,4.10
2023-01-09T23:05:04.232Z,4.10
2023-01-09T23:07:31.222Z,4.10
2023-01-09T23:10:00.408Z,4.10
2023-01-09T23:12:27.578Z,4.10
2023-01-09T23:14:54.562Z,4.20
2023-01-09T23:17:21.534Z,4.20
2023-01-09T23:19:48.568Z,4.20
2023-01-09T23:22:15.531Z,4.20
2023-01-09T23:24:42.596Z,4.20
2023-01-09T23:27:09.643Z,4.20
2023-01-09T23:29:39.519Z,4.30
2023-01-09T23:32:06.833Z,4.20
2023-01-09T23:34:34.043Z,4.20
2023-01-09T23:37:01.137Z,4.20
2023-01-09T23:39:28.195Z,4.20
2023-01-09T23:42:14.026Z,4.20
2023-01-09T23:44:41.087Z,4.20
2023-01-09T23:47:08.050Z,4.20
2023-01-09T23:49:35.114Z,4.10
2023-01-09T23:52:05.858Z,4.20
2023-01-09T23:54:32.908Z,4.10
2023-01-09T23:56:59.927Z,4.10
2023-01-09T23:59:26.892Z,4.10
